createdAt,value
2022-08-19T00:01:38.533Z,99657.91
2022-08-19T00:04:41.156Z,99655.16
2022-08-19T00:07:44.362Z,99661.44
2022-08-19T00:10:47.480Z,99662.34
2022-08-19T00:13:50.984Z,99657.69
2022-08-19T00:16:55.379Z,99658.53
2022-08-19T00:19:57.789Z,99656.03
2022-08-19T00:23:00.205Z,99659.06
2022-08-19T00:26:02.337Z,99656.75
2022-08-19T00:29:06.377Z,99660.84
2022-08-19T00:32:08.536Z,99657.25
2022-08-19T00:35:13.563Z,99667.09
2022-08-19T00:38:15.815Z,99656.97
2022-08-19T00:41:22.089Z,99670.81
2022-08-19T00:44:28.290Z,99667.25
2022-08-19T00:47:30.682Z,99662.84
2022-08-19T00:50:34.809Z,99654.69
2022-08-19T00:53:37.549Z,99656.69
2022-08-19T00:56:39.922Z,99650.19
2022-08-19T01:00:00.807Z,99646.97
2022-08-19T01:03:10.604Z,99643.84
2022-08-19T01:06:12.980Z,99653.78
2022-08-19T01:09:15.128Z,99636.88
2022-08-19T01:12:17.933Z,99645.47
2022-08-19T01:15:25.481Z,99644.34
2022-08-19T01:18:29.922Z,99648.94
2022-08-19T01:21:37.686Z,99649.00
2022-08-19T01:24:49.494Z,99637.31
2022-08-19T01:27:53.811Z,99632.69
2022-08-19T01:30:56.615Z,99641.16
2022-08-19T01:33:59.375Z,99644.84
2022-08-19T01:37:08.904Z,99633.56
2022-08-19T01:40:12.085Z,99630.53
2022-08-19T01:43:16.216Z,99625.47
2022-08-19T01:46:23.261Z,99636.91
2022-08-19T01:49:30.156Z,99626.31
2022-08-19T01:52:32.261Z,99624.41
2022-08-19T01:55:40.924Z,99613.78
2022-08-19T01:58:50.325Z,99602.31
2022-08-19T02:01:52.788Z,99594.44
2022-08-19T02:04:55.291Z,99596.78
2022-08-19T02:07:58.249Z,99595.66
2022-08-19T02:11:00.615Z,99596.41
2022-08-19T02:14:06.635Z,99592.06
2022-08-19T02:17:09.615Z,99588.13
2022-08-19T02:20:14.023Z,99589.78
2022-08-19T02:23:17.827Z,99585.34
2022-08-19T02:26:20.336Z,99590.00
2022-08-19T02:29:23.059Z,99586.03
2022-08-19T02:32:25.146Z,99576.50
2022-08-19T02:35:27.639Z,99576.16
2022-08-19T02:38:29.876Z,99583.03
2022-08-19T02:41:34.109Z,99591.50
2022-08-19T02:44:36.199Z,99588.69
2022-08-19T02:47:39.072Z,99596.03
2022-08-19T02:50:41.278Z,99601.03
2022-08-19T02:53:56.618Z,99593.00
2022-08-19T02:56:59.394Z,99601.91
2022-08-19T03:00:02.729Z,99604.44
2022-08-19T03:03:04.880Z,99617.50
2022-08-19T03:06:14.132Z,99621.50
2022-08-19T03:09:17.543Z,99607.28
2022-08-19T03:12:19.899Z,99614.22
2022-08-19T03:15:22.058Z,99623.75
2022-08-19T03:18:25.077Z,99619.91
2022-08-19T03:21:30.262Z,99627.72
2022-08-19T03:24:32.894Z,99635.94
2022-08-19T03:27:35.010Z,99635.44
2022-08-19T03:30:37.413Z,99630.59
2022-08-19T03:33:44.591Z,99634.59
2022-08-19T03:36:48.686Z,99641.47
2022-08-19T03:39:50.967Z,99635.66
2022-08-19T03:42:53.366Z,99640.13
2022-08-19T03:46:08.257Z,99635.66
2022-08-19T03:49:10.627Z,99642.78
2022-08-19T03:52:16.537Z,99651.22
2022-08-19T03:55:19.463Z,99652.25
2022-08-19T03:58:22.797Z,99661.09
2022-08-19T04:01:34.943Z,99661.25
2022-08-19T04:04:40.622Z,99650.22
2022-08-19T04:07:42.890Z,99648.25
2022-08-19T04:10:45.608Z,99655.81
2022-08-19T04:13:48.327Z,99664.56
2022-08-19T04:16:51.534Z,99667.44
2022-08-19T04:19:53.656Z,99675.06
2022-08-19T04:22:58.074Z,99681.47
2022-08-19T04:26:00.477Z,99673.22
2022-08-19T04:29:13.084Z,99660.44
2022-08-19T04:32:16.401Z,99682.72
2022-08-19T04:35:22.057Z,99687.78
2022-08-19T04:38:26.690Z,99682.19
2022-08-19T04:41:47.866Z,99691.75
2022-08-19T04:44:51.682Z,99691.97
2022-08-19T04:47:58.879Z,99686.13
2022-08-19T04:51:21.607Z,99675.88
2022-08-19T04:54:37.701Z,99680.41
2022-08-19T04:57:41.479Z,99681.59
2022-08-19T05:00:44.569Z,99684.53
2022-08-19T05:03:46.741Z,99696.41
2022-08-19T05:06:50.317Z,99696.41
2022-08-19T05:09:58.621Z,99691.66
2022-08-19T05:13:01.434Z,99689.91
2022-08-19T05:16:03.876Z,99697.00
2022-08-19T05:19:24.929Z,99697.09
2022-08-19T05:22:33.445Z,99689.91
2022-08-19T05:25:35.882Z,99690.13
2022-08-19T05:28:37.984Z,99689.84
2022-08-19T05:31:41.920Z,99686.72
2022-08-19T05:34:44.117Z,99691.81
2022-08-19T05:37:46.474Z,99684.44
2022-08-19T05:40:50.461Z,99699.28
2022-08-19T05:43:53.491Z,99693.41
2022-08-19T05:46:55.599Z,99696.87
2022-08-19T05:49:57.973Z,99696.37
2022-08-19T05:53:00.144Z,99692.03
2022-08-19T05:56:11.759Z,99695.16
2022-08-19T05:59:16.819Z,99689.63
2022-08-19T06:02:21.593Z,99693.16
2022-08-19T06:05:24.030Z,99695.09
2022-08-19T06:08:34.353Z,99695.38
2022-08-19T06:11:46.706Z,99688.37
2022-08-19T06:14:48.811Z,99688.34
2022-08-19T06:18:04.480Z,99688.34
2022-08-19T06:21:06.596Z,99691.84
2022-08-19T06:24:12.146Z,99692.62
2022-08-19T06:27:14.534Z,99694.38
2022-08-19T06:30:17.029Z,99680.94
2022-08-19T06:33:19.148Z,99674.97
2022-08-19T06:36:34.728Z,99667.72
2022-08-19T06:39:40.119Z,99672.31
2022-08-19T06:42:52.308Z,99681.25
2022-08-19T06:45:57.207Z,99674.25
2022-08-19T06:49:02.066Z,99674.44
2022-08-19T06:52:05.876Z,99670.12
2022-08-19T06:55:08.670Z,99668.66
2022-08-19T06:58:11.189Z,99671.94
2022-08-19T07:01:14.087Z,99678.09
2022-08-19T07:04:19.991Z,99689.53
2022-08-19T07:07:23.160Z,99698.34
2022-08-19T07:10:26.212Z,99699.66
2022-08-19T07:13:28.619Z,99707.53
2022-08-19T07:16:31.001Z,99721.16
2022-08-19T07:19:35.306Z,99709.31
2022-08-19T07:22:40.928Z,99711.81
2022-08-19T07:25:44.294Z,99710.72
2022-08-19T07:28:51.380Z,99712.78
2022-08-19T07:32:00.143Z,99712.72
2022-08-19T07:35:04.343Z,99718.75
2022-08-19T07:38:06.759Z,99706.41
2022-08-19T07:41:12.853Z,99707.44
2022-08-19T07:44:16.695Z,99702.84
2022-08-19T07:47:48.905Z,99699.03
2022-08-19T07:50:41.648Z,99688.00
2022-08-19T07:53:45.714Z,99692.78
2022-08-19T07:56:48.099Z,99693.25
2022-08-19T07:59:51.339Z,99694.78
2022-08-19T08:02:55.595Z,99696.28
2022-08-19T08:06:17.031Z,99698.38
2022-08-19T08:09:24.453Z,99698.06
2022-08-19T08:12:42.141Z,99694.94
2022-08-19T08:15:45.559Z,99696.28
2022-08-19T08:18:50.467Z,99703.69
2022-08-19T08:21:55.155Z,99704.88
2022-08-19T08:24:59.260Z,99702.31
2022-08-19T08:28:01.643Z,99698.59
2022-08-19T08:31:04.055Z,99689.84
2022-08-19T08:34:14.128Z,99709.94
2022-08-19T08:37:16.513Z,99703.03
2022-08-19T08:40:25.092Z,99702.84
2022-08-19T08:43:32.453Z,99689.56
2022-08-19T08:46:46.725Z,99685.19
2022-08-19T08:50:12.050Z,99682.09
2022-08-19T08:53:17.036Z,99660.72
2022-08-19T08:56:32.573Z,99662.56
2022-08-19T08:59:38.456Z,99671.88
2022-08-19T09:02:40.911Z,99673.81
2022-08-19T09:06:03.424Z,99672.78
2022-08-19T09:09:16.363Z,99663.97
2022-08-19T09:12:47.289Z,99667.56
2022-08-19T09:15:58.339Z,99669.25
2022-08-19T09:19:07.717Z,99671.16
2022-08-19T09:22:10.767Z,99668.06
2022-08-19T09:25:17.261Z,99660.81
2022-08-19T09:28:27.866Z,99657.50
2022-08-19T09:31:30.972Z,99657.75
2022-08-19T09:34:37.855Z,99648.59
2022-08-19T09:37:40.841Z,99640.94
2022-08-19T09:40:43.221Z,99643.50
2022-08-19T09:43:48.146Z,99646.31
2022-08-19T09:46:51.871Z,99636.88
2022-08-19T09:49:53.977Z,99633.59
2022-08-19T09:52:57.994Z,99629.19
2022-08-19T09:56:00.208Z,99620.28
2022-08-19T09:59:06.574Z,99612.84
2022-08-19T10:02:11.121Z,99611.56
2022-08-19T10:05:32.276Z,99612.81
2022-08-19T10:08:37.691Z,99611.75
2022-08-19T10:11:51.049Z,99613.09
2022-08-19T10:14:56.706Z,99615.69
2022-08-19T10:18:00.203Z,99611.53
2022-08-19T10:21:09.579Z,99602.53
2022-08-19T10:24:14.156Z,99604.03
2022-08-19T10:27:16.369Z,99595.81
2022-08-19T10:30:20.080Z,99600.41
2022-08-19T10:33:38.566Z,99591.97
2022-08-19T10:36:52.264Z,99597.06
2022-08-19T10:39:58.839Z,99601.38
2022-08-19T10:43:01.259Z,99605.50
2022-08-19T10:46:03.381Z,99608.59
2022-08-19T10:49:06.642Z,99597.34
2022-08-19T10:52:32.498Z,99594.25
2022-08-19T10:55:54.005Z,99603.22
2022-08-19T10:58:57.574Z,99603.56
2022-08-19T11:02:01.647Z,99599.72
2022-08-19T11:05:12.414Z,99593.06
2022-08-19T11:08:23.402Z,99591.53
2022-08-19T11:11:26.546Z,99588.19
2022-08-19T11:14:29.082Z,99580.75
2022-08-19T11:17:34.399Z,99585.12
2022-08-19T11:20:37.895Z,99584.06
2022-08-19T11:23:40.652Z,99588.22
2022-08-19T11:26:44.366Z,99594.66
2022-08-19T11:29:46.510Z,99589.78
2022-08-19T11:32:49.665Z,99589.28
2022-08-19T11:35:51.848Z,99585.41
2022-08-19T11:38:55.039Z,99584.66
2022-08-19T11:41:59.983Z,99589.03
2022-08-19T11:45:04.006Z,99584.16
2022-08-19T11:48:06.237Z,99575.72
2022-08-19T11:51:12.469Z,99572.88
2022-08-19T11:54:16.958Z,99579.78
2022-08-19T11:57:20.647Z,99575.16
2022-08-19T12:00:23.350Z,99561.84
2022-08-19T12:03:25.752Z,99564.13
2022-08-19T12:06:32.652Z,99558.97
2022-08-19T12:09:35.446Z,99560.22
2022-08-19T12:12:41.364Z,99566.63
2022-08-19T12:15:43.805Z,99574.03
2022-08-19T12:18:47.270Z,99570.44
2022-08-19T12:21:49.992Z,99567.78
2022-08-19T12:24:54.117Z,99573.16
2022-08-19T12:27:57.498Z,99577.69
2022-08-19T12:31:00.026Z,99569.00
2022-08-19T12:34:03.361Z,99571.78
2022-08-19T12:37:07.023Z,99569.25
2022-08-19T12:40:12.671Z,99557.75
2022-08-19T12:43:20.659Z,99552.44
2022-08-19T12:46:23.744Z,99540.91
2022-08-19T12:49:53.365Z,99533.22
2022-08-19T12:52:52.473Z,99531.19
2022-08-19T12:56:01.086Z,99531.00
2022-08-19T12:59:05.246Z,99523.56
2022-08-19T13:02:08.090Z,99526.16
2022-08-19T13:05:13.435Z,99528.97
2022-08-19T13:08:16.229Z,99528.47
2022-08-19T13:11:21.506Z,99523.13
2022-08-19T13:14:23.980Z,99517.22
2022-08-19T13:17:26.376Z,99525.19
2022-08-19T13:20:28.591Z,99513.13
2022-08-19T13:23:31.430Z,99519.50
2022-08-19T13:26:33.564Z,99519.66
2022-08-19T13:29:54.539Z,99515.03
2022-08-19T13:33:11.801Z,99521.16
2022-08-19T13:36:14.217Z,99509.56
2022-08-19T13:39:17.299Z,99520.44
2022-08-19T13:42:20.189Z,99518.34
2022-08-19T13:45:25.311Z,99508.28
2022-08-19T13:48:28.040Z,99504.91
2022-08-19T13:51:30.242Z,99499.59
2022-08-19T13:54:32.732Z,99510.88
2022-08-19T13:57:35.253Z,99522.19
2022-08-19T14:00:42.145Z,99553.84
2022-08-19T14:03:45.565Z,99556.12
2022-08-19T14:06:49.620Z,99562.03
2022-08-19T14:09:52.000Z,99545.03
2022-08-19T14:12:56.691Z,99551.91
2022-08-19T14:15:59.079Z,99547.31
2022-08-19T14:19:01.987Z,99549.81
2022-08-19T14:22:05.457Z,99540.62
2022-08-19T14:25:17.850Z,99536.66
2022-08-19T14:28:20.223Z,99513.66
2022-08-19T14:31:27.819Z,99521.00
2022-08-19T14:34:34.590Z,99509.84
2022-08-19T14:37:45.437Z,99518.53
2022-08-19T14:40:49.850Z,99532.84
2022-08-19T14:43:54.179Z,99530.38
2022-08-19T14:46:56.601Z,99530.38
2022-08-19T14:49:59.710Z,99526.03
2022-08-19T14:53:08.182Z,99517.69
2022-08-19T14:56:17.545Z,99552.22
2022-08-19T14:59:19.897Z,99525.25
2022-08-19T15:02:34.648Z,99551.75
2022-08-19T15:05:37.820Z,99555.72
2022-08-19T15:08:42.112Z,99556.63
2022-08-19T15:11:44.635Z,99564.09
2022-08-19T15:14:51.186Z,99577.16
2022-08-19T15:17:57.359Z,99584.13
2022-08-19T15:21:00.173Z,99588.00
2022-08-19T15:24:03.529Z,99594.84
2022-08-19T15:27:06.856Z,99597.63
2022-08-19T15:30:11.575Z,99607.75
2022-08-19T15:33:18.447Z,99619.84
2022-08-19T15:36:20.818Z,99614.13
2022-08-19T15:39:23.069Z,99604.81
2022-08-19T15:42:30.036Z,99608.22
2022-08-19T15:45:32.964Z,99588.69
2022-08-19T15:48:35.382Z,99541.53
2022-08-19T15:51:39.260Z,99544.63
2022-08-19T15:54:41.703Z,99560.13
2022-08-19T15:58:02.542Z,99551.75
2022-08-19T16:01:27.213Z,99552.41
2022-08-19T16:04:48.356Z,99550.84
2022-08-19T16:07:51.060Z,99540.91
2022-08-19T16:10:53.560Z,99540.91
2022-08-19T16:13:57.820Z,99530.84
2022-08-19T16:17:01.982Z,99530.84
2022-08-19T16:20:08.602Z,99529.44
2022-08-19T16:23:11.222Z,99530.53
2022-08-19T16:26:15.330Z,99541.84
2022-08-19T16:29:33.885Z,99554.84
2022-08-19T16:32:44.051Z,99557.78
2022-08-19T16:35:46.799Z,99566.00
2022-08-19T16:38:58.565Z,99578.84
2022-08-19T16:42:01.105Z,99604.09
2022-08-19T16:45:04.099Z,99614.88
2022-08-19T16:48:06.585Z,99634.66
2022-08-19T16:51:13.287Z,99649.31
2022-08-19T16:54:15.683Z,99673.34
2022-08-19T16:57:19.245Z,99664.63
2022-08-19T17:00:21.770Z,99674.50
2022-08-19T17:03:27.850Z,99690.66
2022-08-19T17:06:39.613Z,99697.94
2022-08-19T17:09:41.728Z,99695.50
2022-08-19T17:12:44.712Z,99684.44
2022-08-19T17:15:47.526Z,99650.03
2022-08-19T17:18:52.411Z,99602.88
2022-08-19T17:21:54.610Z,99587.72
2022-08-19T17:24:58.329Z,99546.44
2022-08-19T17:28:12.854Z,99530.78
2022-08-19T17:31:16.062Z,99506.69
2022-08-19T17:34:18.345Z,99500.06
2022-08-19T17:37:20.942Z,99498.22
2022-08-19T17:40:23.246Z,99487.97
2022-08-19T17:43:32.828Z,99469.06
2022-08-19T17:46:37.041Z,99447.78
2022-08-19T17:49:39.451Z,99448.56
2022-08-19T17:52:42.900Z,99446.31
2022-08-19T17:55:48.117Z,99461.91
2022-08-19T17:58:59.738Z,99478.31
2022-08-19T18:02:03.798Z,99497.78
2022-08-19T18:05:06.964Z,99506.34
2022-08-19T18:08:11.199Z,99531.81
2022-08-19T18:11:13.590Z,99591.22
2022-08-19T18:14:15.704Z,99681.19
2022-08-19T18:17:19.302Z,99706.41
2022-08-19T18:20:21.548Z,99704.31
2022-08-19T18:23:43.935Z,99670.91
2022-08-19T18:26:48.738Z,99689.53
2022-08-19T18:29:51.202Z,99733.87
2022-08-19T18:32:54.407Z,99788.25
2022-08-19T18:35:56.823Z,99830.97
2022-08-19T18:39:17.389Z,99864.16
2022-08-19T18:42:39.317Z,99850.47
2022-08-19T18:46:00.760Z,99874.66
2022-08-19T18:49:05.797Z,99865.63
2022-08-19T18:52:08.026Z,99862.03
2022-08-19T18:55:10.409Z,99863.66
2022-08-19T18:58:13.136Z,99852.56
2022-08-19T19:01:29.434Z,99838.53
2022-08-19T19:04:37.269Z,99811.16
2022-08-19T19:07:39.915Z,99802.31
2022-08-19T19:10:42.263Z,99761.81
2022-08-19T19:13:46.921Z,99750.47
2022-08-19T19:16:49.158Z,99754.22
2022-08-19T19:19:51.529Z,99747.56
2022-08-19T19:22:55.946Z,99701.03
2022-08-19T19:26:00.952Z,99740.31
2022-08-19T19:29:03.139Z,99732.81
2022-08-19T19:32:22.845Z,99718.84
2022-08-19T19:35:24.951Z,99707.53
2022-08-19T19:38:27.399Z,99673.41
2022-08-19T19:41:29.797Z,99643.87
2022-08-19T19:44:32.657Z,99623.03
2022-08-19T19:47:34.936Z,99615.56
2022-08-19T19:50:37.323Z,99595.44
2022-08-19T19:53:39.706Z,99595.72
2022-08-19T19:56:48.541Z,99615.88
2022-08-19T19:59:51.721Z,99627.00
2022-08-19T20:02:56.004Z,99619.94
2022-08-19T20:05:59.280Z,99631.78
2022-08-19T20:09:10.854Z,99741.13
2022-08-19T20:12:13.251Z,99916.59
2022-08-19T20:15:15.419Z,99893.75
2022-08-19T20:18:17.796Z,99917.37
2022-08-19T20:21:20.349Z,99954.00
2022-08-19T20:24:26.068Z,99959.91
2022-08-19T20:27:30.289Z,99959.09
2022-08-19T20:30:35.673Z,99953.56
2022-08-19T20:33:40.597Z,99959.53
2022-08-19T20:36:43.585Z,99967.38
2022-08-19T20:39:45.704Z,99997.25
2022-08-19T20:42:48.108Z,100007.09
2022-08-19T20:45:50.274Z,100016.50
2022-08-19T20:48:52.651Z,100000.00
2022-08-19T20:51:56.646Z,99996.06
2022-08-19T20:54:59.139Z,100008.62
2022-08-19T20:58:01.265Z,100005.06
2022-08-19T21:01:06.343Z,100003.91
2022-08-19T21:04:08.502Z,99989.38
2022-08-19T21:07:11.016Z,99993.69
2022-08-19T21:10:13.928Z,99988.94
2022-08-19T21:13:17.098Z,99979.47
2022-08-19T21:16:19.208Z,99959.88
2022-08-19T21:19:24.172Z,99924.94
2022-08-19T21:22:26.442Z,99895.44
2022-08-19T21:25:29.107Z,99850.25
2022-08-19T21:28:35.194Z,99812.13
2022-08-19T21:31:38.707Z,99835.72
2022-08-19T21:34:40.940Z,99818.81
2022-08-19T21:37:46.253Z,99825.91
2022-08-19T21:40:48.743Z,99827.06
2022-08-19T21:43:51.109Z,99839.66
2022-08-19T21:46:53.216Z,99823.94
2022-08-19T21:49:55.625Z,99772.06
2022-08-19T21:52:58.089Z,99757.94
2022-08-19T21:56:00.520Z,99739.47
2022-08-19T21:59:02.703Z,99715.88
2022-08-19T22:02:19.173Z,99717.44
2022-08-19T22:05:23.826Z,99714.31
2022-08-19T22:08:27.200Z,99708.81
2022-08-19T22:11:29.643Z,99700.53
2022-08-19T22:14:33.665Z,99714.31
2022-08-19T22:17:36.386Z,99689.56
2022-08-19T22:20:38.487Z,99672.63
2022-08-19T22:23:42.051Z,99661.59
2022-08-19T22:26:44.173Z,99669.88
2022-08-19T22:29:46.585Z,99660.41
2022-08-19T22:32:56.024Z,99663.94
2022-08-19T22:35:59.333Z,99656.88
2022-08-19T22:39:01.543Z,99639.22
2022-08-19T22:42:03.967Z,99636.06
2022-08-19T22:45:08.740Z,99625.47
2022-08-19T22:48:13.941Z,99622.75
2022-08-19T22:51:35.207Z,99614.13
2022-08-19T22:54:37.610Z,99611.78
2022-08-19T22:57:39.940Z,99612.16
2022-08-19T23:00:42.910Z,99606.66
2022-08-19T23:03:45.104Z,99605.91
2022-08-19T23:06:47.512Z,99618.06
2022-08-19T23:09:49.616Z,99610.22
2022-08-19T23:12:52.495Z,99618.06
2022-08-19T23:15:56.290Z,99618.47
2022-08-19T23:22:05.160Z,99612.56
2022-08-19T23:25:12.405Z,99621.59
2022-08-19T23:31:37.305Z,99619.63
2022-08-19T23:34:39.430Z,99609.47
2022-08-19T23:37:41.840Z,99608.28
2022-08-19T23:40:44.389Z,99587.84
2022-08-19T23:43:46.883Z,99590.59
2022-08-19T23:46:55.310Z,99597.31
2022-08-19T23:49:58.109Z,99604.81
2022-08-19T23:53:01.680Z,99603.63
2022-08-19T23:56:05.011Z,99604.00
2022-08-19T23:59:07.139Z,99603.59
